createdAt,value
2023-02-19T00:01:19.206Z,100.00
2023-02-19T00:03:54.807Z,100.00
2023-02-19T00:06:23.069Z,100.00
2023-02-19T00:08:50.183Z,100.00
2023-02-19T00:11:20.144Z,100.00
2023-02-19T00:13:49.616Z,100.00
2023-02-19T00:16:34.118Z,100.00
2023-02-19T00:19:03.275Z,99.12
2023-02-19T00:21:30.537Z,100.00
2023-02-19T00:24:00.230Z,100.00
2023-02-19T00:26:27.381Z,100.00
2023-02-19T00:28:55.666Z,100.00
2023-02-19T00:31:25.814Z,99.93
2023-02-19T00:33:58.205Z,97.59
2023-02-19T00:36:25.913Z,98.31
2023-02-19T00:38:53.042Z,98.97
2023-02-19T00:41:21.510Z,99.78
2023-02-19T00:43:54.104Z,100.00
2023-02-19T00:46:31.858Z,100.00
2023-02-19T00:48:59.115Z,100.00
2023-02-19T00:51:29.198Z,100.00
2023-02-19T00:53:56.233Z,100.00
2023-02-19T00:56:22.960Z,100.00
2023-02-19T00:58:50.477Z,100.00
2023-02-19T01:01:18.303Z,100.00
2023-02-19T01:03:45.038Z,100.00
2023-02-19T01:06:14.526Z,100.00
2023-02-19T01:08:41.556Z,100.00
2023-02-19T01:11:10.663Z,100.00
2023-02-19T01:13:37.946Z,100.00
2023-02-19T01:16:11.726Z,100.00
2023-02-19T01:18:38.916Z,100.00
2023-02-19T01:21:17.330Z,100.00
2023-02-19T01:23:44.399Z,100.00
2023-02-19T01:26:15.133Z,100.00
2023-02-19T01:28:42.093Z,100.00
2023-02-19T01:31:12.939Z,100.00
2023-02-19T01:33:39.976Z,100.00
2023-02-19T01:36:07.878Z,100.00
2023-02-19T01:38:34.497Z,100.00
2023-02-19T01:41:04.127Z,100.00
2023-02-19T01:43:35.815Z,100.00
2023-02-19T01:46:02.637Z,100.00
2023-02-19T01:48:39.968Z,100.00
2023-02-19T01:51:11.329Z,100.00
2023-02-19T01:53:43.517Z,100.00
2023-02-19T01:56:12.205Z,100.00
2023-02-19T01:58:39.790Z,100.00
2023-02-19T02:01:08.953Z,100.00
2023-02-19T02:03:38.199Z,100.00
2023-02-19T02:06:24.227Z,100.00
2023-02-19T02:09:15.271Z,100.00
2023-02-19T02:11:47.375Z,100.00
2023-02-19T02:14:15.012Z,100.00
2023-02-19T02:17:14.994Z,100.00
2023-02-19T02:20:17.959Z,100.00
2023-02-19T02:23:13.634Z,100.00
2023-02-19T02:26:13.907Z,100.00
2023-02-19T02:29:35.770Z,100.00
2023-02-19T02:32:25.454Z,100.00
2023-02-19T02:34:56.530Z,100.00
2023-02-19T02:37:25.490Z,100.00
2023-02-19T02:39:53.782Z,100.00
2023-02-19T02:42:29.826Z,100.00
2023-02-19T02:45:16.813Z,100.00
2023-02-19T02:47:50.838Z,100.00
2023-02-19T02:50:25.896Z,100.00
2023-02-19T02:53:18.007Z,100.00
2023-02-19T02:55:47.343Z,100.00
2023-02-19T02:58:15.882Z,100.00
2023-02-19T03:01:04.561Z,100.00
2023-02-19T03:03:32.665Z,100.00
2023-02-19T03:06:06.810Z,100.00
2023-02-19T03:08:40.657Z,100.00
2023-02-19T03:11:30.824Z,100.00
2023-02-19T03:14:46.075Z,100.00
2023-02-19T03:17:37.202Z,100.00
2023-02-19T03:20:10.671Z,100.00
2023-02-19T03:22:40.046Z,100.00
2023-02-19T03:25:45.658Z,100.00
2023-02-19T03:28:17.543Z,100.00
2023-02-19T03:30:48.186Z,100.00
2023-02-19T03:33:22.715Z,100.00
2023-02-19T03:36:06.529Z,100.00
2023-02-19T03:38:57.430Z,100.00
2023-02-19T03:41:39.229Z,100.00
2023-02-19T03:44:36.002Z,100.00
2023-02-19T03:47:17.795Z,100.00
2023-02-19T03:49:48.894Z,100.00
2023-02-19T03:52:36.865Z,100.00
2023-02-19T03:55:07.007Z,100.00
2023-02-19T03:57:39.082Z,100.00
2023-02-19T04:00:21.847Z,100.00
2023-02-19T04:02:48.435Z,100.00
2023-02-19T04:05:19.695Z,100.00
2023-02-19T04:07:50.386Z,100.00
2023-02-19T04:10:18.878Z,100.00
2023-02-19T04:12:54.241Z,100.00
2023-02-19T04:15:27.794Z,100.00
2023-02-19T04:18:19.501Z,100.00
2023-02-19T04:20:47.711Z,100.00
2023-02-19T04:23:18.439Z,100.00
2023-02-19T04:25:49.899Z,100.00
2023-02-19T04:28:18.392Z,100.00
2023-02-19T04:30:45.473Z,100.00
2023-02-19T04:33:12.194Z,100.00
2023-02-19T04:35:38.989Z,100.00
2023-02-19T04:38:05.743Z,100.00
2023-02-19T04:40:32.481Z,100.00
2023-02-19T04:42:59.150Z,100.00
2023-02-19T04:45:25.856Z,100.00
2023-02-19T04:47:52.528Z,100.00
2023-02-19T04:50:19.285Z,100.00
2023-02-19T04:52:45.950Z,100.00
2023-02-19T04:55:12.675Z,100.00
2023-02-19T04:57:39.358Z,100.00
2023-02-19T05:00:06.889Z,100.00
2023-02-19T05:02:33.716Z,100.00
2023-02-19T05:05:00.357Z,100.00
2023-02-19T05:07:27.027Z,100.00
2023-02-19T05:09:53.746Z,100.00
2023-02-19T05:12:20.733Z,100.00
2023-02-19T05:14:47.385Z,100.00
2023-02-19T05:17:14.067Z,100.00
2023-02-19T05:19:40.731Z,100.00
2023-02-19T05:22:07.412Z,100.00
2023-02-19T05:24:34.151Z,100.00
2023-02-19T05:27:00.798Z,100.00
2023-02-19T05:29:27.493Z,100.00
2023-02-19T05:31:54.376Z,100.00
2023-02-19T05:34:21.132Z,100.00
2023-02-19T05:36:47.820Z,100.00
2023-02-19T05:39:14.648Z,100.00
2023-02-19T05:41:41.466Z,100.00
2023-02-19T05:44:10.620Z,100.00
2023-02-19T05:46:37.366Z,100.00
2023-02-19T05:49:04.361Z,100.00
2023-02-19T05:51:31.079Z,100.00
2023-02-19T05:53:58.051Z,100.00
2023-02-19T05:56:36.905Z,100.00
2023-02-19T05:59:25.501Z,100.00
2023-02-19T06:01:54.561Z,100.00
2023-02-19T06:04:21.469Z,100.00
2023-02-19T06:06:48.709Z,100.00
2023-02-19T06:09:15.370Z,100.00
2023-02-19T06:11:43.450Z,100.00
2023-02-19T06:14:12.744Z,100.00
2023-02-19T06:16:39.649Z,100.00
2023-02-19T06:19:06.312Z,100.00
2023-02-19T06:21:33.152Z,100.00
2023-02-19T06:24:04.675Z,100.00
2023-02-19T06:26:31.336Z,100.00
2023-02-19T06:28:58.035Z,100.00
2023-02-19T06:31:24.810Z,100.00
2023-02-19T06:33:51.550Z,100.00
2023-02-19T06:36:21.155Z,100.00
2023-02-19T06:38:48.140Z,100.00
2023-02-19T06:41:14.902Z,100.00
2023-02-19T06:43:41.829Z,100.00
2023-02-19T06:46:08.818Z,100.00
2023-02-19T06:48:35.885Z,100.00
2023-02-19T06:51:03.469Z,100.00
2023-02-19T06:53:30.419Z,100.00
2023-02-19T06:56:02.744Z,100.00
2023-02-19T06:58:29.599Z,100.00
2023-02-19T07:00:56.662Z,100.00
2023-02-19T07:03:23.812Z,100.00
2023-02-19T07:05:50.744Z,100.00
2023-02-19T07:08:18.072Z,100.00
2023-02-19T07:10:45.656Z,100.00
2023-02-19T07:13:12.505Z,100.00
2023-02-19T07:15:39.303Z,100.00
2023-02-19T07:18:10.344Z,100.00
2023-02-19T07:20:37.411Z,100.00
2023-02-19T07:23:04.290Z,100.00
2023-02-19T07:25:31.030Z,100.00
2023-02-19T07:27:57.778Z,100.00
2023-02-19T07:30:24.500Z,100.00
2023-02-19T07:32:52.869Z,100.00
2023-02-19T07:35:19.566Z,100.00
2023-02-19T07:37:46.250Z,100.00
2023-02-19T07:40:13.103Z,100.00
2023-02-19T07:42:39.953Z,100.00
2023-02-19T07:45:06.968Z,100.00
2023-02-19T07:47:33.631Z,99.74
2023-02-19T07:50:00.296Z,98.26
2023-02-19T07:52:27.457Z,97.75
2023-02-19T07:54:54.170Z,91.27
2023-02-19T07:57:20.845Z,87.15
2023-02-19T07:59:47.559Z,84.17
2023-02-19T08:02:37.806Z,82.49
2023-02-19T08:05:06.249Z,80.29
2023-02-19T08:07:34.598Z,78.84
2023-02-19T08:10:20.512Z,78.06
2023-02-19T08:13:14.098Z,77.53
2023-02-19T08:15:40.813Z,76.87
2023-02-19T08:18:08.544Z,76.47
2023-02-19T08:20:35.540Z,76.18
2023-02-19T08:23:02.279Z,76.47
2023-02-19T08:25:29.486Z,74.82
2023-02-19T08:27:56.455Z,74.17
2023-02-19T08:30:23.258Z,73.40
2023-02-19T08:32:50.235Z,73.35
2023-02-19T08:35:16.918Z,70.93
2023-02-19T08:37:43.739Z,68.68
2023-02-19T08:40:11.110Z,68.76
2023-02-19T08:42:38.003Z,66.76
2023-02-19T08:45:05.477Z,64.62
2023-02-19T08:47:34.505Z,63.55
2023-02-19T08:50:01.487Z,61.35
2023-02-19T08:52:28.341Z,61.26
2023-02-19T08:54:55.142Z,61.92
2023-02-19T08:57:22.184Z,61.22
2023-02-19T08:59:48.935Z,61.35
2023-02-19T09:02:15.625Z,61.42
2023-02-19T09:04:42.370Z,60.35
2023-02-19T09:07:11.184Z,59.84
2023-02-19T09:09:38.429Z,58.42
2023-02-19T09:12:06.518Z,56.58
2023-02-19T09:14:34.635Z,56.26
2023-02-19T09:17:02.861Z,55.83
2023-02-19T09:19:29.727Z,55.73
2023-02-19T09:21:56.747Z,55.51
2023-02-19T09:24:24.601Z,56.12
2023-02-19T09:26:53.857Z,54.85
2023-02-19T09:29:25.394Z,54.36
2023-02-19T09:31:55.659Z,52.49
2023-02-19T09:34:22.423Z,54.74
2023-02-19T09:36:50.603Z,54.70
2023-02-19T09:39:17.333Z,53.10
2023-02-19T09:41:46.697Z,53.34
2023-02-19T09:44:48.468Z,52.26
2023-02-19T09:47:24.628Z,52.04
2023-02-19T09:49:56.453Z,51.19
2023-02-19T09:52:47.755Z,50.04
2023-02-19T09:55:31.358Z,49.24
2023-02-19T09:58:00.786Z,47.87
2023-02-19T10:00:32.628Z,46.98
2023-02-19T10:03:14.870Z,45.94
2023-02-19T10:05:42.139Z,46.20
2023-02-19T10:08:18.184Z,46.98
2023-02-19T10:10:45.653Z,46.47
2023-02-19T10:13:19.757Z,45.64
2023-02-19T10:15:54.690Z,45.06
2023-02-19T10:18:25.211Z,44.85
2023-02-19T10:20:53.288Z,42.69
2023-02-19T10:23:20.399Z,42.96
2023-02-19T10:25:51.656Z,43.41
2023-02-19T10:28:20.443Z,42.25
2023-02-19T10:30:54.948Z,42.65
2023-02-19T10:33:22.214Z,42.12
2023-02-19T10:36:02.260Z,42.49
2023-02-19T10:38:48.183Z,42.40
2023-02-19T10:41:17.930Z,42.12
2023-02-19T10:43:53.829Z,41.83
2023-02-19T10:46:25.609Z,43.19
2023-02-19T10:48:58.706Z,41.78
2023-02-19T10:51:44.699Z,41.47
2023-02-19T10:54:32.705Z,40.92
2023-02-19T10:57:18.261Z,41.24
2023-02-19T10:59:53.413Z,40.88
2023-02-19T11:02:21.671Z,42.94
2023-02-19T11:05:09.780Z,41.57
2023-02-19T11:07:38.339Z,40.16
2023-02-19T11:10:07.237Z,40.20
2023-02-19T11:12:35.293Z,40.49
2023-02-19T11:15:19.817Z,39.86
2023-02-19T11:17:54.854Z,39.72
2023-02-19T11:20:22.673Z,41.11
2023-02-19T11:22:49.919Z,41.91
2023-02-19T11:25:17.184Z,41.09
2023-02-19T11:28:07.322Z,41.23
2023-02-19T11:30:36.857Z,40.69
2023-02-19T11:33:22.086Z,40.01
2023-02-19T11:35:52.710Z,40.66
2023-02-19T11:38:20.377Z,41.39
2023-02-19T11:41:19.023Z,40.54
2023-02-19T11:44:19.503Z,39.92
2023-02-19T11:47:27.779Z,39.92
2023-02-19T11:50:06.175Z,40.53
2023-02-19T11:53:02.846Z,41.08
2023-02-19T11:55:56.598Z,39.55
2023-02-19T11:58:47.968Z,39.62
2023-02-19T12:01:23.546Z,40.68
2023-02-19T12:04:08.832Z,40.14
2023-02-19T12:06:50.954Z,39.50
2023-02-19T12:09:23.495Z,39.00
2023-02-19T12:12:21.726Z,38.96
2023-02-19T12:15:04.998Z,39.17
2023-02-19T12:17:46.453Z,39.92
2023-02-19T12:20:37.641Z,39.46
2023-02-19T12:23:29.184Z,39.36
2023-02-19T12:26:22.278Z,39.86
2023-02-19T12:28:49.051Z,39.89
2023-02-19T12:31:15.827Z,40.32
2023-02-19T12:34:16.358Z,41.07
2023-02-19T12:36:46.688Z,41.46
2023-02-19T12:39:34.783Z,41.41
2023-02-19T12:42:43.827Z,42.05
2023-02-19T12:45:30.097Z,42.42
2023-02-19T12:48:05.286Z,42.23
2023-02-19T12:50:35.358Z,42.24
2023-02-19T12:53:10.102Z,41.63
2023-02-19T12:55:41.550Z,41.95
2023-02-19T12:58:14.693Z,41.26
2023-02-19T13:00:56.680Z,41.59
2023-02-19T13:03:34.814Z,42.04
2023-02-19T13:06:09.702Z,41.64
2023-02-19T13:09:05.455Z,41.66
2023-02-19T13:11:55.663Z,41.86
2023-02-19T13:14:34.539Z,41.95
2023-02-19T13:17:13.338Z,41.36
2023-02-19T13:19:40.022Z,41.49
2023-02-19T13:22:39.138Z,41.71
2023-02-19T13:25:07.818Z,41.30
2023-02-19T13:27:52.269Z,41.17
2023-02-19T13:30:52.395Z,41.29
2023-02-19T13:34:09.925Z,40.84
2023-02-19T13:36:37.680Z,42.42
2023-02-19T13:39:08.142Z,42.58
2023-02-19T13:41:51.481Z,43.13
2023-02-19T13:44:40.265Z,43.37
2023-02-19T13:47:45.590Z,43.23
2023-02-19T13:50:23.879Z,43.36
2023-02-19T13:52:53.476Z,43.73
2023-02-19T13:55:46.800Z,44.16
2023-02-19T13:58:39.766Z,44.56
2023-02-19T14:01:11.790Z,44.78
2023-02-19T14:03:54.230Z,44.80
2023-02-19T14:06:21.474Z,45.21
2023-02-19T14:09:00.347Z,45.70
2023-02-19T14:11:42.367Z,45.91
2023-02-19T14:14:26.634Z,44.87
2023-02-19T14:17:20.974Z,45.25
2023-02-19T14:19:53.873Z,45.90
2023-02-19T14:22:45.565Z,46.63
2023-02-19T14:25:27.701Z,46.26
2023-02-19T14:27:55.860Z,45.95
2023-02-19T14:30:23.983Z,45.99
2023-02-19T14:33:02.790Z,46.67
2023-02-19T14:35:47.424Z,46.87
2023-02-19T14:38:28.483Z,47.24
2023-02-19T14:40:55.970Z,46.81
2023-02-19T14:43:25.230Z,46.50
2023-02-19T14:46:04.527Z,46.97
2023-02-19T14:48:39.741Z,46.43
2023-02-19T14:51:13.984Z,47.20
2023-02-19T14:53:44.879Z,48.48
2023-02-19T14:56:23.337Z,47.76
2023-02-19T14:59:22.320Z,47.78
2023-02-19T15:02:03.955Z,48.80
2023-02-19T15:04:36.769Z,48.76
2023-02-19T15:07:08.425Z,49.04
2023-02-19T15:09:44.249Z,49.61
2023-02-19T15:12:46.116Z,50.03
2023-02-19T15:15:21.129Z,49.81
2023-02-19T15:17:48.420Z,50.21
2023-02-19T15:20:19.776Z,50.53
2023-02-19T15:22:46.813Z,49.99
2023-02-19T15:25:19.477Z,50.33
2023-02-19T15:27:46.345Z,50.42
2023-02-19T15:30:29.598Z,50.74
2023-02-19T15:32:59.181Z,50.99
2023-02-19T15:35:28.983Z,50.97
2023-02-19T15:37:56.377Z,51.35
2023-02-19T15:40:30.328Z,51.87
2023-02-19T15:42:59.088Z,52.26
2023-02-19T15:45:35.459Z,52.71
2023-02-19T15:48:10.626Z,52.97
2023-02-19T15:50:44.237Z,53.19
2023-02-19T15:53:21.724Z,53.50
2023-02-19T15:55:54.112Z,54.08
2023-02-19T15:58:32.666Z,54.29
2023-02-19T16:01:14.886Z,54.22
2023-02-19T16:03:42.275Z,54.51
2023-02-19T16:06:16.778Z,54.43
2023-02-19T16:09:03.689Z,54.48
2023-02-19T16:11:47.056Z,54.40
2023-02-19T16:14:22.608Z,53.94
2023-02-19T16:16:56.304Z,53.91
2023-02-19T16:19:41.735Z,54.70
2023-02-19T16:22:11.491Z,54.93
2023-02-19T16:24:45.279Z,55.14
2023-02-19T16:27:14.242Z,55.56
2023-02-19T16:29:41.333Z,55.55
2023-02-19T16:32:16.955Z,55.32
2023-02-19T16:34:51.010Z,55.72
2023-02-19T16:37:40.915Z,55.98
2023-02-19T16:40:07.613Z,55.91
2023-02-19T16:42:49.414Z,56.07
2023-02-19T16:45:16.745Z,55.97
2023-02-19T16:47:48.560Z,55.67
2023-02-19T16:50:24.380Z,56.32
2023-02-19T16:52:54.984Z,56.68
2023-02-19T16:55:22.297Z,56.80
2023-02-19T16:57:49.581Z,56.88
2023-02-19T17:00:20.660Z,56.45
2023-02-19T17:02:49.276Z,56.15
2023-02-19T17:05:17.057Z,56.15
2023-02-19T17:07:43.707Z,56.45
2023-02-19T17:10:17.215Z,56.53
2023-02-19T17:12:43.870Z,56.48
2023-02-19T17:15:12.025Z,56.67
2023-02-19T17:17:39.572Z,56.88
2023-02-19T17:20:29.467Z,57.66
2023-02-19T17:22:56.942Z,58.05
2023-02-19T17:25:23.976Z,58.38
2023-02-19T17:27:50.654Z,58.11
2023-02-19T17:30:28.526Z,57.88
2023-02-19T17:32:55.392Z,58.39
2023-02-19T17:35:22.244Z,58.58
2023-02-19T17:37:49.085Z,58.57
2023-02-19T17:40:32.107Z,59.15
2023-02-19T17:42:59.759Z,59.45
2023-02-19T17:45:26.469Z,59.41
2023-02-19T17:47:53.298Z,59.50
2023-02-19T17:50:23.377Z,60.59
2023-02-19T17:52:50.118Z,61.43
2023-02-19T17:55:18.518Z,62.50
2023-02-19T17:57:46.483Z,63.00
2023-02-19T18:00:17.582Z,63.22
2023-02-19T18:02:44.227Z,63.51
2023-02-19T18:05:11.058Z,63.37
2023-02-19T18:07:38.667Z,63.58
2023-02-19T18:10:06.660Z,63.70
2023-02-19T18:12:33.324Z,63.89
2023-02-19T18:15:00.233Z,65.48
2023-02-19T18:17:27.132Z,71.04
2023-02-19T18:19:54.643Z,75.30
2023-02-19T18:22:21.479Z,76.71
2023-02-19T18:24:52.487Z,80.10
2023-02-19T18:27:20.481Z,82.49
2023-02-19T18:29:51.951Z,86.52
2023-02-19T18:32:19.968Z,92.02
2023-02-19T18:34:55.489Z,92.89
2023-02-19T18:37:24.324Z,96.89
2023-02-19T18:39:52.227Z,100.00
2023-02-19T18:42:19.294Z,100.00
2023-02-19T18:44:50.466Z,100.00
2023-02-19T18:47:18.098Z,100.00
2023-02-19T18:49:52.238Z,100.00
2023-02-19T18:52:20.447Z,100.00
2023-02-19T18:54:48.418Z,100.00
2023-02-19T18:57:15.671Z,100.00
2023-02-19T18:59:43.032Z,100.00
2023-02-19T19:02:10.442Z,100.00
2023-02-19T19:04:38.774Z,100.00
2023-02-19T19:07:06.572Z,100.00
2023-02-19T19:09:34.256Z,100.00
2023-02-19T19:12:01.419Z,100.00
2023-02-19T19:14:28.289Z,100.00
2023-02-19T19:16:55.007Z,100.00
2023-02-19T19:19:21.823Z,100.00
2023-02-19T19:21:53.477Z,100.00
2023-02-19T19:24:21.524Z,100.00
2023-02-19T19:26:51.322Z,100.00
2023-02-19T19:29:20.515Z,100.00
2023-02-19T19:31:47.398Z,100.00
2023-02-19T19:34:15.195Z,100.00
2023-02-19T19:36:41.908Z,100.00
2023-02-19T19:39:09.286Z,100.00
2023-02-19T19:41:36.253Z,100.00
2023-02-19T19:44:05.080Z,100.00
2023-02-19T19:46:32.552Z,100.00
2023-02-19T19:48:59.732Z,100.00
2023-02-19T19:51:33.979Z,100.00
2023-02-19T19:54:02.056Z,100.00
2023-02-19T19:56:28.762Z,100.00
2023-02-19T19:58:55.579Z,100.00
2023-02-19T20:01:23.300Z,100.00
2023-02-19T20:03:51.251Z,100.00
2023-02-19T20:06:33.415Z,100.00
2023-02-19T20:09:00.422Z,100.00
2023-02-19T20:11:27.259Z,100.00
2023-02-19T20:13:54.189Z,100.00
2023-02-19T20:16:26.282Z,100.00
2023-02-19T20:18:53.221Z,100.00
2023-02-19T20:21:20.124Z,100.00
2023-02-19T20:23:46.928Z,100.00
2023-02-19T20:26:14.834Z,100.00
2023-02-19T20:28:47.386Z,100.00
2023-02-19T20:31:14.466Z,100.00
2023-02-19T20:33:41.601Z,100.00
2023-02-19T20:36:08.787Z,100.00
2023-02-19T20:38:35.476Z,100.00
2023-02-19T20:41:02.745Z,100.00
2023-02-19T20:43:29.463Z,100.00
2023-02-19T20:45:56.158Z,100.00
2023-02-19T20:48:22.835Z,100.00
2023-02-19T20:50:49.918Z,100.00
2023-02-19T20:53:16.562Z,100.00
2023-02-19T20:55:43.228Z,100.00
2023-02-19T20:58:09.966Z,100.00
2023-02-19T21:00:36.667Z,100.00
2023-02-19T21:03:03.428Z,100.00
2023-02-19T21:05:30.135Z,100.00
2023-02-19T21:07:56.838Z,100.00
2023-02-19T21:10:24.321Z,100.00
2023-02-19T21:12:52.476Z,100.00
2023-02-19T21:15:26.241Z,100.00
2023-02-19T21:17:53.098Z,100.00
2023-02-19T21:20:20.143Z,100.00
2023-02-19T21:22:46.852Z,100.00
2023-02-19T21:25:13.580Z,100.00
2023-02-19T21:27:40.385Z,100.00
2023-02-19T21:30:07.903Z,100.00
2023-02-19T21:32:34.561Z,100.00
2023-02-19T21:35:01.210Z,100.00
2023-02-19T21:37:27.938Z,100.00
2023-02-19T21:39:55.714Z,100.00
2023-02-19T21:42:22.381Z,100.00
2023-02-19T21:44:49.111Z,100.00
2023-02-19T21:47:16.145Z,100.00
2023-02-19T21:49:43.248Z,100.00
2023-02-19T21:52:09.997Z,100.00
2023-02-19T21:54:36.698Z,100.00
2023-02-19T21:57:03.699Z,100.00
2023-02-19T21:59:30.379Z,100.00
2023-02-19T22:01:57.577Z,100.00
2023-02-19T22:04:24.678Z,100.00
2023-02-19T22:06:55.401Z,100.00
2023-02-19T22:09:22.118Z,100.00
2023-02-19T22:11:48.811Z,100.00
2023-02-19T22:14:15.510Z,100.00
2023-02-19T22:16:42.291Z,100.00
2023-02-19T22:19:12.110Z,100.00
2023-02-19T22:21:43.183Z,100.00
2023-02-19T22:24:18.699Z,100.00
2023-02-19T22:26:46.230Z,100.00
2023-02-19T22:29:15.060Z,100.00
2023-02-19T22:31:42.415Z,100.00
2023-02-19T22:34:09.603Z,100.00
2023-02-19T22:36:40.396Z,100.00
2023-02-19T22:39:09.438Z,100.00
2023-02-19T22:41:36.167Z,100.00
2023-02-19T22:44:02.890Z,100.00
2023-02-19T22:46:31.286Z,100.00
2023-02-19T22:48:58.820Z,100.00
2023-02-19T22:51:26.775Z,100.00
2023-02-19T22:53:56.259Z,100.00
2023-02-19T22:56:25.804Z,100.00
2023-02-19T22:58:54.045Z,100.00
2023-02-19T23:01:21.302Z,100.00
2023-02-19T23:03:58.838Z,100.00
2023-02-19T23:06:31.553Z,100.00
2023-02-19T23:09:02.619Z,100.00
2023-02-19T23:11:33.266Z,100.00
2023-02-19T23:14:00.001Z,100.00
2023-02-19T23:16:26.793Z,100.00
2023-02-19T23:18:53.702Z,100.00
2023-02-19T23:21:22.620Z,100.00
2023-02-19T23:23:49.428Z,100.00
2023-02-19T23:26:16.825Z,100.00
2023-02-19T23:28:43.947Z,100.00
2023-02-19T23:31:11.444Z,100.00
2023-02-19T23:33:38.920Z,100.00
2023-02-19T23:36:06.013Z,100.00
2023-02-19T23:38:32.743Z,100.00
2023-02-19T23:40:59.816Z,100.00
2023-02-19T23:43:26.631Z,100.00
2023-02-19T23:45:53.477Z,100.00
2023-02-19T23:48:20.385Z,100.00
2023-02-19T23:50:47.033Z,100.00
2023-02-19T23:53:13.727Z,100.00
2023-02-19T23:55:40.398Z,100.00
2023-02-19T23:58:07.123Z,100.00
